sensor_id;sensor_type;location;lat;lon;timestamp;pressure;altitude;pressure_sealevel;temperature;humidity
45247;BME280;31529;51.158;7.354;2023-07-09T00:00:06;98240.81;;;24.86;46.64
45247;BME280;31529;51.158;7.354;2023-07-09T00:00:44;98243.91;;;24.84;46.63
45247;BME280;31529;51.158;7.354;2023-07-09T00:01:18;98248.22;;;24.85;46.36
45247;BME280;31529;51.158;7.354;2023-07-09T00:01:49;98245.50;;;24.85;46.54
45247;BME280;31529;51.158;7.354;2023-07-09T00:02:24;98245.88;;;24.84;46.37
45247;BME280;31529;51.158;7.354;2023-07-09T00:02:57;98245.50;;;24.85;46.29
45247;BME280;31529;51.158;7.354;2023-07-09T00:03:29;98236.50;;;24.85;46.58
45247;BME280;31529;51.158;7.354;2023-07-09T00:04:00;98246.28;;;24.86;46.55
45247;BME280;31529;51.158;7.354;2023-07-09T00:04:31;98246.28;;;24.86;46.42
45247;BME280;31529;51.158;7.354;2023-07-09T00:05:04;98244.31;;;24.86;46.44
45247;BME280;31529;51.158;7.354;2023-07-09T00:05:35;98249.78;;;24.86;46.63
45247;BME280;31529;51.158;7.354;2023-07-09T00:06:07;98250.56;;;24.87;46.50
45247;BME280;31529;51.158;7.354;2023-07-09T00:06:38;98244.31;;;24.86;47.03
45247;BME280;31529;51.158;7.354;2023-07-09T00:07:16;98250.97;;;24.85;47.19
45247;BME280;31529;51.158;7.354;2023-07-09T00:07:54;98247.78;;;24.83;47.31
45247;BME280;31529;51.158;7.354;2023-07-09T00:08:29;98241.13;;;24.81;47.55
45247;BME280;31529;51.158;7.354;2023-07-09T00:09:02;98248.13;;;24.78;47.36
45247;BME280;31529;51.158;7.354;2023-07-09T00:09:33;98244.19;;;24.75;47.68
45247;BME280;31529;51.158;7.354;2023-07-09T00:10:08;98239.84;;;24.71;47.77
45247;BME280;31529;51.158;7.354;2023-07-09T00:10:45;98236.28;;;24.67;48.03
45247;BME280;31529;51.158;7.354;2023-07-09T00:11:16;98243.25;;;24.64;47.96
45247;BME280;31529;51.158;7.354;2023-07-09T00:11:47;98242.44;;;24.60;48.17
45247;BME280;31529;51.158;7.354;2023-07-09T00:12:20;98246.69;;;24.58;48.60
45247;BME280;31529;51.158;7.354;2023-07-09T00:12:52;98237.69;;;24.53;48.78
45247;BME280;31529;51.158;7.354;2023-07-09T00:13:24;98241.47;;;24.49;48.51
45247;BME280;31529;51.158;7.354;2023-07-09T00:13:56;98240.63;;;24.45;48.89
45247;BME280;31529;51.158;7.354;2023-07-09T00:14:27;98236.72;;;24.42;49.18
45247;BME280;31529;51.158;7.354;2023-07-09T00:14:58;98238.97;;;24.36;49.11
45247;BME280;31529;51.158;7.354;2023-07-09T00:15:29;98244.38;;;24.33;48.87
45247;BME280;31529;51.158;7.354;2023-07-09T00:16:01;98241.97;;;24.28;48.80
45247;BME280;31529;51.158;7.354;2023-07-09T00:16:38;98244.25;;;24.26;48.83
45247;BME280;31529;51.158;7.354;2023-07-09T00:17:11;98243.06;;;24.23;48.68
45247;BME280;31529;51.158;7.354;2023-07-09T00:17:48;98237.63;;;24.23;49.17
45247;BME280;31529;51.158;7.354;2023-07-09T00:18:19;98232.53;;;24.22;48.81
45247;BME280;31529;51.158;7.354;2023-07-09T00:18:50;98243.00;;;24.20;48.86
45247;BME280;31529;51.158;7.354;2023-07-09T00:19:22;98242.59;;;24.17;48.77
45247;BME280;31529;51.158;7.354;2023-07-09T00:20:00;98238.28;;;24.16;48.80
45247;BME280;31529;51.158;7.354;2023-07-09T00:20:31;98237.88;;;24.14;48.39
45247;BME280;31529;51.158;7.354;2023-07-09T00:21:02;98237.09;;;24.14;48.51
45247;BME280;31529;51.158;7.354;2023-07-09T00:21:33;98235.50;;;24.13;48.81
45247;BME280;31529;51.158;7.354;2023-07-09T00:22:09;98242.91;;;24.12;48.91
45247;BME280;31529;51.158;7.354;2023-07-09T00:22:47;98240.19;;;24.12;49.15
45247;BME280;31529;51.158;7.354;2023-07-09T00:23:22;98231.22;;;24.12;49.16
45247;BME280;31529;51.158;7.354;2023-07-09T00:23:53;98238.63;;;24.11;49.46
45247;BME280;31529;51.158;7.354;2023-07-09T00:24:24;98240.13;;;24.09;49.66
45247;BME280;31529;51.158;7.354;2023-07-09T00:24:56;98240.47;;;24.07;49.56
45247;BME280;31529;51.158;7.354;2023-07-09T00:25:30;98235.78;;;24.04;49.91
45247;BME280;31529;51.158;7.354;2023-07-09T00:26:01;98239.63;;;24.03;50.05
45247;BME280;31529;51.158;7.354;2023-07-09T00:26:33;98233.34;;;23.99;50.31
45247;BME280;31529;51.158;7.354;2023-07-09T00:27:08;98236.81;;;23.96;50.34
45247;BME280;31529;51.158;7.354;2023-07-09T00:27:40;98234.03;;;23.92;50.21
45247;BME280;31529;51.158;7.354;2023-07-09T00:28:15;98232.81;;;23.90;50.54
45247;BME280;31529;51.158;7.354;2023-07-09T00:28:47;98235.13;;;23.88;50.53
45247;BME280;31529;51.158;7.354;2023-07-09T00:29:19;98240.94;;;23.86;50.20
45247;BME280;31529;51.158;7.354;2023-07-09T00:29:50;98229.59;;;23.84;50.11
45247;BME280;31529;51.158;7.354;2023-07-09T00:30:23;98232.69;;;23.83;50.02
45247;BME280;31529;51.158;7.354;2023-07-09T00:30:54;98229.19;;;23.82;50.02
45247;BME280;31529;51.158;7.354;2023-07-09T00:31:25;98242.03;;;23.82;50.31
45247;BME280;31529;51.158;7.354;2023-07-09T00:31:57;98236.59;;;23.82;50.14
45247;BME280;31529;51.158;7.354;2023-07-09T00:32:28;98235.41;;;23.83;50.27
45247;BME280;31529;51.158;7.354;2023-07-09T00:32:59;98236.22;;;23.83;50.20
45247;BME280;31529;51.158;7.354;2023-07-09T00:33:32;98240.50;;;23.84;50.13
45247;BME280;31529;51.158;7.354;2023-07-09T00:34:03;98240.50;;;23.84;50.41
45247;BME280;31529;51.158;7.354;2023-07-09T00:34:34;98234.28;;;23.84;50.04
45247;BME280;31529;51.158;7.354;2023-07-09T00:35:05;98237.78;;;23.84;50.57
45247;BME280;31529;51.158;7.354;2023-07-09T00:35:37;98235.88;;;23.85;50.32
45247;BME280;31529;51.158;7.354;2023-07-09T00:36:14;98237.78;;;23.84;50.82
45247;BME280;31529;51.158;7.354;2023-07-09T00:37:24;98238.94;;;23.83;50.75
45247;BME280;31529;51.158;7.354;2023-07-09T00:38:21;98237.72;;;23.81;50.90
45247;BME280;31529;51.158;7.354;2023-07-09T00:39:16;98232.66;;;23.79;51.43
45247;BME280;31529;51.158;7.354;2023-07-09T00:40:14;98236.44;;;23.74;51.63
45247;BME280;31529;51.158;7.354;2023-07-09T00:41:21;98237.13;;;23.68;51.74
45247;BME280;31529;51.158;7.354;2023-07-09T00:42:12;98240.91;;;23.63;51.91
45247;BME280;31529;51.158;7.354;2023-07-09T00:43:10;98234.56;;;23.55;52.18
45247;BME280;31529;51.158;7.354;2023-07-09T00:44:54;98238.31;;;23.47;52.50
45247;BME280;31529;51.158;7.354;2023-07-09T00:45:26;98241.75;;;23.44;52.60
45247;BME280;31529;51.158;7.354;2023-07-09T00:48:11;98237.81;;;23.42;52.68
45247;BME280;31529;51.158;7.354;2023-07-09T00:49:06;98237.03;;;23.41;53.02
45247;BME280;31529;51.158;7.354;2023-07-09T00:51:19;98240.47;;;23.38;53.23
45247;BME280;31529;51.158;7.354;2023-07-09T00:52:22;98242.78;;;23.36;53.66
45247;BME280;31529;51.158;7.354;2023-07-09T00:52:59;98244.25;;;23.33;53.36
45247;BME280;31529;51.158;7.354;2023-07-09T00:53:37;98236.84;;;23.30;53.76
45247;BME280;31529;51.158;7.354;2023-07-09T00:54:41;98238.72;;;23.26;54.34
45247;BME280;31529;51.158;7.354;2023-07-09T00:55:18;98236.69;;;23.23;54.32
45247;BME280;31529;51.158;7.354;2023-07-09T00:56:01;98161.44;;;22.72;54.53
45247;BME280;31529;51.158;7.354;2023-07-09T00:56:38;98234.66;;;23.16;54.64
45247;BME280;31529;51.158;7.354;2023-07-09T00:57:37;98233.34;;;23.10;54.92
45247;BME280;31529;51.158;7.354;2023-07-09T00:58:12;98240.31;;;23.08;55.04
45247;BME280;31529;51.158;7.354;2023-07-09T00:58:46;98231.28;;;23.04;55.05
45247;BME280;31529;51.158;7.354;2023-07-09T00:59:19;98236.28;;;23.02;55.42
45247;BME280;31529;51.158;7.354;2023-07-09T00:59:57;98228.38;;;22.96;55.71
45247;BME280;31529;51.158;7.354;2023-07-09T01:00:52;98230.25;;;22.92;55.53
45247;BME280;31529;51.158;7.354;2023-07-09T01:01:27;98242.66;;;22.90;55.87
45247;BME280;31529;51.158;7.354;2023-07-09T01:01:58;98235.97;;;22.87;56.09
45247;BME280;31529;51.158;7.354;2023-07-09T01:02:55;98235.53;;;22.85;56.02
45247;BME280;31529;51.158;7.354;2023-07-09T01:03:31;98235.13;;;22.83;56.20
45247;BME280;31529;51.158;7.354;2023-07-09T01:04:32;98231.97;;;22.81;56.33
45247;BME280;31529;51.158;7.354;2023-07-09T01:05:04;98238.94;;;22.78;56.29
45247;BME280;31529;51.158;7.354;2023-07-09T01:05:39;98235.41;;;22.78;56.65
45247;BME280;31529;51.158;7.354;2023-07-09T01:06:13;98237.69;;;22.76;56.94
45247;BME280;31529;51.158;7.354;2023-07-09T01:06:51;98234.19;;;22.75;56.75
45247;BME280;31529;51.158;7.354;2023-07-09T01:07:23;98239.97;;;22.74;56.88
45247;BME280;31529;51.158;7.354;2023-07-09T01:07:54;98234.88;;;22.72;56.81
45247;BME280;31529;51.158;7.354;2023-07-09T01:08:25;98230.59;;;22.71;56.76
45247;BME280;31529;51.158;7.354;2023-07-09T01:09:00;98228.25;;;22.70;57.15
45247;BME280;31529;51.158;7.354;2023-07-09T01:09:33;98237.53;;;22.69;57.05
45247;BME280;31529;51.158;7.354;2023-07-09T01:10:12;98230.53;;;22.68;57.10
45247;BME280;31529;51.158;7.354;2023-07-09T01:10:44;98233.19;;;22.64;57.48
45247;BME280;31529;51.158;7.354;2023-07-09T01:11:16;98235.13;;;22.64;57.61
45247;BME280;31529;51.158;7.354;2023-07-09T01:11:51;98234.31;;;22.63;57.98
45247;BME280;31529;51.158;7.354;2023-07-09T01:12:27;98237.41;;;22.61;58.18
45247;BME280;31529;51.158;7.354;2023-07-09T01:12:58;98242.03;;;22.61;58.29
45247;BME280;31529;51.158;7.354;2023-07-09T01:13:30;98231.53;;;22.59;58.29
45247;BME280;31529;51.158;7.354;2023-07-09T01:14:03;98234.25;;;22.59;58.57
45247;BME280;31529;51.158;7.354;2023-07-09T01:14:37;98229.53;;;22.56;58.81
45247;BME280;31529;51.158;7.354;2023-07-09T01:15:09;98234.19;;;22.56;58.91
45247;BME280;31529;51.158;7.354;2023-07-09T01:15:42;98231.81;;;22.54;58.75
45247;BME280;31529;51.158;7.354;2023-07-09T01:16:13;98234.09;;;22.52;59.17
45247;BME280;31529;51.158;7.354;2023-07-09T01:16:48;98232.50;;;22.51;59.41
45247;BME280;31529;51.158;7.354;2023-07-09T01:17:30;98234.38;;;22.47;59.64
45247;BME280;31529;51.158;7.354;2023-07-09T01:18:26;98232.34;;;22.44;59.67
45247;BME280;31529;51.158;7.354;2023-07-09T01:18:57;98238.94;;;22.43;59.83
45247;BME280;31529;51.158;7.354;2023-07-09T01:19:29;98233.84;;;22.41;59.73
45247;BME280;31529;51.158;7.354;2023-07-09T01:20:38;98232.66;;;22.39;60.08
45247;BME280;31529;51.158;7.354;2023-07-09T01:21:10;98231.06;;;22.38;60.12
45247;BME280;31529;51.158;7.354;2023-07-09T01:22:12;98236.06;;;22.36;60.62
45247;BME280;31529;51.158;7.354;2023-07-09T01:22:45;98230.19;;;22.34;60.83
45247;BME280;31529;51.158;7.354;2023-07-09T01:23:51;98232.06;;;22.30;60.53
45247;BME280;31529;51.158;7.354;2023-07-09T01:25:19;98236.63;;;22.26;61.06
45247;BME280;31529;51.158;7.354;2023-07-09T01:25:52;98237.72;;;22.25;61.11
45247;BME280;31529;51.158;7.354;2023-07-09T01:26:26;98232.63;;;22.23;61.31
45247;BME280;31529;51.158;7.354;2023-07-09T01:27:00;98231.41;;;22.20;61.67
45247;BME280;31529;51.158;7.354;2023-07-09T01:28:06;98236.44;;;22.18;61.81
45247;BME280;31529;51.158;7.354;2023-07-09T01:28:37;98232.50;;;22.16;62.11
45247;BME280;31529;51.158;7.354;2023-07-09T01:29:08;98227.41;;;22.14;62.39
45247;BME280;31529;51.158;7.354;2023-07-09T01:29:40;98235.91;;;22.13;62.38
45247;BME280;31529;51.158;7.354;2023-07-09T01:30:34;98241.69;;;22.11;62.77
45247;BME280;31529;51.158;7.354;2023-07-09T01:31:08;98242.38;;;22.08;62.89
45247;BME280;31529;51.158;7.354;2023-07-09T01:31:39;98238.44;;;22.06;62.80
45247;BME280;31529;51.158;7.354;2023-07-09T01:32:10;98236.88;;;22.05;62.97
45247;BME280;31529;51.158;7.354;2023-07-09T01:32:41;98237.22;;;22.03;63.20
45247;BME280;31529;51.158;7.354;2023-07-09T01:33:16;98232.16;;;22.01;63.22
45247;BME280;31529;51.158;7.354;2023-07-09T01:34:12;98234.78;;;21.98;63.49
45247;BME280;31529;51.158;7.354;2023-07-09T01:34:46;98234.00;;;21.97;63.55
45247;BME280;31529;51.158;7.354;2023-07-09T01:35:20;98237.84;;;21.96;64.14
45247;BME280;31529;51.158;7.354;2023-07-09T01:35:52;98233.56;;;21.95;63.86
45247;BME280;31529;51.158;7.354;2023-07-09T01:36:25;98239.00;;;21.95;63.70
45247;BME280;31529;51.158;7.354;2023-07-09T01:36:57;98237.06;;;21.96;63.51
45247;BME280;31529;51.158;7.354;2023-07-09T01:37:29;98242.16;;;21.97;63.39
45247;BME280;31529;51.158;7.354;2023-07-09T01:38:00;98234.44;;;21.99;63.17
45247;BME280;31529;51.158;7.354;2023-07-09T01:38:32;98234.88;;;22.01;63.05
45247;BME280;31529;51.158;7.354;2023-07-09T01:39:03;98241.50;;;22.04;63.18
45247;BME280;31529;51.158;7.354;2023-07-09T01:39:59;98229.44;;;22.01;62.92
45247;BME280;31529;51.158;7.354;2023-07-09T01:40:30;98231.03;;;22.02;62.81
45247;BME280;31529;51.158;7.354;2023-07-09T01:41:02;98236.88;;;22.05;62.47
45247;BME280;31529;51.158;7.354;2023-07-09T01:41:33;98236.16;;;22.08;62.14
45247;BME280;31529;51.158;7.354;2023-07-09T01:42:05;98235.47;;;22.11;61.96
45247;BME280;31529;51.158;7.354;2023-07-09T01:42:38;98230.91;;;22.15;61.59
45247;BME280;31529;51.158;7.354;2023-07-09T01:43:11;98229.41;;;22.17;61.47
45247;BME280;31529;51.158;7.354;2023-07-09T01:43:42;98233.00;;;22.21;61.14
45247;BME280;31529;51.158;7.354;2023-07-09T01:44:17;98229.25;;;22.26;61.61
45247;BME280;31529;51.158;7.354;2023-07-09T01:44:49;98229.31;;;22.30;61.51
45247;BME280;31529;51.158;7.354;2023-07-09T01:45:21;98233.25;;;22.32;61.52
45247;BME280;31529;51.158;7.354;2023-07-09T01:45:52;98227.47;;;22.34;61.48
45247;BME280;31529;51.158;7.354;2023-07-09T01:46:28;98229.84;;;22.35;61.77
45247;BME280;31529;51.158;7.354;2023-07-09T01:47:01;98229.50;;;22.37;61.90
45247;BME280;31529;51.158;7.354;2023-07-09T01:47:34;98232.22;;;22.37;61.85
45247;BME280;31529;51.158;7.354;2023-07-09T01:48:07;98231.06;;;22.38;61.81
45247;BME280;31529;51.158;7.354;2023-07-09T01:48:46;98225.63;;;22.38;61.70
45247;BME280;31529;51.158;7.354;2023-07-09T01:49:17;98222.91;;;22.38;62.07
45247;BME280;31529;51.158;7.354;2023-07-09T01:49:50;98224.06;;;22.37;61.95
45247;BME280;31529;51.158;7.354;2023-07-09T01:50:27;98230.28;;;22.37;62.06
45247;BME280;31529;51.158;7.354;2023-07-09T01:51:00;98230.28;;;22.37;62.00
45247;BME280;31529;51.158;7.354;2023-07-09T01:51:33;98223.63;;;22.35;62.30
45247;BME280;31529;51.158;7.354;2023-07-09T01:52:04;98227.13;;;22.35;62.20
45247;BME280;31529;51.158;7.354;2023-07-09T01:52:40;98229.06;;;22.35;62.48
45247;BME280;31529;51.158;7.354;2023-07-09T01:53:17;98227.47;;;22.34;62.35
45247;BME280;31529;51.158;7.354;2023-07-09T01:53:54;98224.31;;;22.32;62.36
45247;BME280;31529;51.158;7.354;2023-07-09T01:54:30;98230.88;;;22.31;62.30
45247;BME280;31529;51.158;7.354;2023-07-09T01:55:02;98232.06;;;22.30;62.49
45247;BME280;31529;51.158;7.354;2023-07-09T01:55:36;98225.03;;;22.29;62.37
45247;BME280;31529;51.158;7.354;2023-07-09T01:56:07;98228.91;;;22.28;62.46
45247;BME280;31529;51.158;7.354;2023-07-09T01:57:22;98227.66;;;22.25;62.42
45247;BME280;31529;51.158;7.354;2023-07-09T01:57:55;98231.84;;;22.22;62.44
45247;BME280;31529;51.158;7.354;2023-07-09T01:58:26;98230.28;;;22.21;62.37
45247;BME280;31529;51.158;7.354;2023-07-09T01:59:01;98234.13;;;22.20;62.43
45247;BME280;31529;51.158;7.354;2023-07-09T01:59:32;98233.69;;;22.18;62.79
45247;BME280;31529;51.158;7.354;2023-07-09T02:00:05;98229.41;;;22.17;62.44
45247;BME280;31529;51.158;7.354;2023-07-09T02:00:41;98233.28;;;22.16;62.63
45247;BME280;31529;51.158;7.354;2023-07-09T02:01:13;98232.50;;;22.16;62.65
45247;BME280;31529;51.158;7.354;2023-07-09T02:01:45;98236.34;;;22.15;63.13
45247;BME280;31529;51.158;7.354;2023-07-09T02:02:20;98240.19;;;22.14;62.98
45247;BME280;31529;51.158;7.354;2023-07-09T02:02:52;98222.31;;;22.13;63.12
45247;BME280;31529;51.158;7.354;2023-07-09T02:03:49;98230.03;;;22.11;63.07
45247;BME280;31529;51.158;7.354;2023-07-09T02:04:46;98234.22;;;22.08;63.80
45247;BME280;31529;51.158;7.354;2023-07-09T02:05:21;98231.06;;;22.06;63.78
45247;BME280;31529;51.158;7.354;2023-07-09T02:06:17;98232.59;;;22.03;63.84
45247;BME280;31529;51.158;7.354;2023-07-09T02:06:50;98233.75;;;22.02;64.07
45247;BME280;31529;51.158;7.354;2023-07-09T02:07:22;98229.44;;;22.01;64.02
45247;BME280;31529;51.158;7.354;2023-07-09T02:07:54;98226.63;;;21.98;63.52
45247;BME280;31529;51.158;7.354;2023-07-09T02:08:26;98234.78;;;21.98;63.77
45247;BME280;31529;51.158;7.354;2023-07-09T02:08:56;98228.56;;;21.97;64.00
45247;BME280;31529;51.158;7.354;2023-07-09T02:09:28;98227.78;;;21.97;64.11
45247;BME280;31529;51.158;7.354;2023-07-09T02:09:59;98232.41;;;21.96;64.14
45247;BME280;31529;51.158;7.354;2023-07-09T02:10:32;98228.13;;;21.95;64.18
45247;BME280;31529;51.158;7.354;2023-07-09T02:11:03;98231.97;;;21.94;64.37
45247;BME280;31529;51.158;7.354;2023-07-09T02:11:38;98233.13;;;21.93;64.54
45247;BME280;31529;51.158;7.354;2023-07-09T02:12:09;98230.41;;;21.93;64.80
45247;BME280;31529;51.158;7.354;2023-07-09T02:12:44;98232.69;;;21.91;64.48
45247;BME280;31529;51.158;7.354;2023-07-09T02:13:16;98223.72;;;21.91;64.37
45247;BME280;31529;51.158;7.354;2023-07-09T02:14:14;98234.16;;;21.89;64.57
45247;BME280;31529;51.158;7.354;2023-07-09T02:14:45;98231.00;;;21.87;64.55
45247;BME280;31529;51.158;7.354;2023-07-09T02:15:19;98234.88;;;21.86;64.88
45247;BME280;31529;51.158;7.354;2023-07-09T02:15:50;98229.03;;;21.83;65.17
45247;BME280;31529;51.158;7.354;2023-07-09T02:16:22;98227.78;;;21.81;65.52
45247;BME280;31529;51.158;7.354;2023-07-09T02:16:53;98230.06;;;21.79;65.74
45247;BME280;31529;51.158;7.354;2023-07-09T02:17:24;98231.56;;;21.76;65.95
45247;BME280;31529;51.158;7.354;2023-07-09T02:17:55;98233.84;;;21.74;66.04
45247;BME280;31529;51.158;7.354;2023-07-09T02:18:28;98233.41;;;21.72;66.47
45247;BME280;31529;51.158;7.354;2023-07-09T02:18:59;98232.16;;;21.70;66.53
45247;BME280;31529;51.158;7.354;2023-07-09T02:19:30;98227.44;;;21.67;66.81
45247;BME280;31529;51.158;7.354;2023-07-09T02:20:01;98224.28;;;21.64;67.04
45247;BME280;31529;51.158;7.354;2023-07-09T02:20:40;98230.41;;;21.61;67.36
45247;BME280;31529;51.158;7.354;2023-07-09T02:21:11;98239.00;;;21.63;67.30
45247;BME280;31529;51.158;7.354;2023-07-09T02:22:06;98230.06;;;21.63;67.13
45247;BME280;31529;51.158;7.354;2023-07-09T02:22:38;98233.56;;;21.63;66.98
45247;BME280;31529;51.158;7.354;2023-07-09T02:23:11;98239.00;;;21.63;67.06
45247;BME280;31529;51.158;7.354;2023-07-09T02:23:42;98231.19;;;21.62;66.88
45247;BME280;31529;51.158;7.354;2023-07-09T02:24:13;98231.19;;;21.62;67.12
45247;BME280;31529;51.158;7.354;2023-07-09T02:24:44;98224.19;;;21.61;67.24
45247;BME280;31529;51.158;7.354;2023-07-09T02:25:16;98226.09;;;21.60;67.26
45247;BME280;31529;51.158;7.354;2023-07-09T02:25:47;98092.41;;;20.72;67.18
45247;BME280;31529;51.158;7.354;2023-07-09T02:26:18;98228.03;;;21.60;66.97
45247;BME280;31529;51.158;7.354;2023-07-09T02:26:49;98235.06;;;21.61;67.32
45247;BME280;31529;51.158;7.354;2023-07-09T02:27:20;98228.38;;;21.58;67.31
45247;BME280;31529;51.158;7.354;2023-07-09T02:27:52;98227.94;;;21.56;67.07
45247;BME280;31529;51.158;7.354;2023-07-09T02:28:23;98223.66;;;21.55;67.47
45247;BME280;31529;51.158;7.354;2023-07-09T02:28:54;98228.28;;;21.55;67.83
45247;BME280;31529;51.158;7.354;2023-07-09T02:29:26;98227.84;;;21.53;67.58
45247;BME280;31529;51.158;7.354;2023-07-09T02:29:58;98226.28;;;21.52;68.08
45247;BME280;31529;51.158;7.354;2023-07-09T02:30:29;98228.56;;;21.50;67.97
45247;BME280;31529;51.158;7.354;2023-07-09T02:31:00;98230.47;;;21.49;68.35
45247;BME280;31529;51.158;7.354;2023-07-09T02:31:32;98230.03;;;21.47;68.19
45247;BME280;31529;51.158;7.354;2023-07-09T02:32:04;98222.22;;;21.45;68.33
45247;BME280;31529;51.158;7.354;2023-07-09T02:33:00;98228.03;;;21.44;68.21
45247;BME280;31529;51.158;7.354;2023-07-09T02:33:56;98227.56;;;21.42;68.74
45247;BME280;31529;51.158;7.354;2023-07-09T02:34:51;98236.06;;;21.40;68.75
45247;BME280;31529;51.158;7.354;2023-07-09T02:35:26;98228.25;;;21.39;68.43
45247;BME280;31529;51.158;7.354;2023-07-09T02:35:57;98232.09;;;21.38;68.52
45247;BME280;31529;51.158;7.354;2023-07-09T02:36:50;98237.50;;;21.38;68.79
45247;BME280;31529;51.158;7.354;2023-07-09T02:37:22;98237.50;;;21.38;68.66
45247;BME280;31529;51.158;7.354;2023-07-09T02:37:54;98236.72;;;21.37;68.50
45247;BME280;31529;51.158;7.354;2023-07-09T02:38:49;98232.91;;;21.38;68.73
45247;BME280;31529;51.158;7.354;2023-07-09T02:39:20;98241.81;;;21.39;68.96
45247;BME280;31529;51.158;7.354;2023-07-09T02:40:17;98238.31;;;21.38;68.67
45247;BME280;31529;51.158;7.354;2023-07-09T02:40:48;98236.38;;;21.39;68.98
45247;BME280;31529;51.158;7.354;2023-07-09T02:41:43;98235.28;;;21.40;68.67
45247;BME280;31529;51.158;7.354;2023-07-09T02:42:16;98239.88;;;21.39;68.98
45247;BME280;31529;51.158;7.354;2023-07-09T02:42:49;98239.88;;;21.39;69.16
45247;BME280;31529;51.158;7.354;2023-07-09T02:43:21;98232.91;;;21.38;68.84
45247;BME280;31529;51.158;7.354;2023-07-09T02:43:52;98230.19;;;21.38;68.99
45247;BME280;31529;51.158;7.354;2023-07-09T02:44:23;98234.81;;;21.38;69.54
45247;BME280;31529;51.158;7.354;2023-07-09T02:44:54;98243.75;;;21.38;69.53
45247;BME280;31529;51.158;7.354;2023-07-09T02:45:25;98238.31;;;21.38;69.25
45247;BME280;31529;51.158;7.354;2023-07-09T02:45:56;98237.50;;;21.38;69.32
45247;BME280;31529;51.158;7.354;2023-07-09T02:46:27;98247.59;;;21.37;69.36
45247;BME280;31529;51.158;7.354;2023-07-09T02:46:58;98241.38;;;21.37;69.25
45247;BME280;31529;51.158;7.354;2023-07-09T02:47:30;98245.66;;;21.38;69.21
45247;BME280;31529;51.158;7.354;2023-07-09T02:48:01;98243.31;;;21.36;69.35
45247;BME280;31529;51.158;7.354;2023-07-09T02:48:33;98246.03;;;21.36;68.93
45247;BME280;31529;51.158;7.354;2023-07-09T02:49:04;98244.88;;;21.37;68.80
45247;BME280;31529;51.158;7.354;2023-07-09T02:49:36;98251.09;;;21.38;69.12
45247;BME280;31529;51.158;7.354;2023-07-09T02:50:08;98250.75;;;21.39;68.89
45247;BME280;31529;51.158;7.354;2023-07-09T02:50:42;98255.06;;;21.40;69.10
45247;BME280;31529;51.158;7.354;2023-07-09T02:51:13;98250.06;;;21.42;68.81
45247;BME280;31529;51.158;7.354;2023-07-09T02:51:47;98252.47;;;21.44;68.91
45247;BME280;31529;51.158;7.354;2023-07-09T02:52:18;98254.03;;;21.45;69.08
45247;BME280;31529;51.158;7.354;2023-07-09T02:53:14;98254.03;;;21.45;69.49
45247;BME280;31529;51.158;7.354;2023-07-09T02:53:45;98174.31;;;20.93;69.69
45247;BME280;31529;51.158;7.354;2023-07-09T02:54:16;98261.81;;;21.47;69.70
45247;BME280;31529;51.158;7.354;2023-07-09T02:54:48;98250.53;;;21.44;69.42
45247;BME280;31529;51.158;7.354;2023-07-09T02:55:19;98247.81;;;21.44;69.45
45247;BME280;31529;51.158;7.354;2023-07-09T02:55:50;98257.06;;;21.43;70.04
45247;BME280;31529;51.158;7.354;2023-07-09T02:56:21;98254.34;;;21.43;69.53
45247;BME280;31529;51.158;7.354;2023-07-09T02:56:53;98248.91;;;21.43;69.72
45247;BME280;31529;51.158;7.354;2023-07-09T02:57:24;98245.75;;;21.41;69.84
45247;BME280;31529;51.158;7.354;2023-07-09T02:57:56;98253.91;;;21.41;69.73
45247;BME280;31529;51.158;7.354;2023-07-09T02:58:27;98252.34;;;21.40;69.83
45247;BME280;31529;51.158;7.354;2023-07-09T02:58:58;98249.97;;;21.39;69.77
45247;BME280;31529;51.158;7.354;2023-07-09T02:59:29;98254.63;;;21.38;69.55
45247;BME280;31529;51.158;7.354;2023-07-09T03:00:00;98253.03;;;21.37;69.85
45247;BME280;31529;51.158;7.354;2023-07-09T03:00:31;98254.19;;;21.36;69.28
45247;BME280;31529;51.158;7.354;2023-07-09T03:01:03;98251.03;;;21.34;69.46
45247;BME280;31529;51.158;7.354;2023-07-09T03:01:34;98251.03;;;21.34;69.32
45247;BME280;31529;51.158;7.354;2023-07-09T03:02:06;98248.31;;;21.34;69.54
45247;BME280;31529;51.158;7.354;2023-07-09T03:02:37;98246.72;;;21.33;69.67
45247;BME280;31529;51.158;7.354;2023-07-09T03:03:08;98255.63;;;21.34;69.67
45247;BME280;31529;51.158;7.354;2023-07-09T03:03:39;98254.84;;;21.33;69.66
45247;BME280;31529;51.158;7.354;2023-07-09T03:04:35;98262.22;;;21.33;69.60
45247;BME280;31529;51.158;7.354;2023-07-09T03:05:06;98254.06;;;21.33;69.54
45247;BME280;31529;51.158;7.354;2023-07-09T03:05:41;98252.16;;;21.33;69.64
45247;BME280;31529;51.158;7.354;2023-07-09T03:06:12;98258.69;;;21.32;69.77
45247;BME280;31529;51.158;7.354;2023-07-09T03:06:43;98251.38;;;21.33;69.38
45247;BME280;31529;51.158;7.354;2023-07-09T03:07:15;98252.91;;;21.34;69.52
45247;BME280;31529;51.158;7.354;2023-07-09T03:07:46;98257.56;;;21.33;69.87
45247;BME280;31529;51.158;7.354;2023-07-09T03:08:17;98258.00;;;21.35;69.76
45247;BME280;31529;51.158;7.354;2023-07-09T03:08:48;98259.16;;;21.34;69.80
45247;BME280;31529;51.158;7.354;2023-07-09T03:09:20;98255.28;;;21.35;69.43
45247;BME280;31529;51.158;7.354;2023-07-09T03:09:51;98255.28;;;21.35;69.52
45247;BME280;31529;51.158;7.354;2023-07-09T03:10:22;98257.22;;;21.35;69.52
45247;BME280;31529;51.158;7.354;2023-07-09T03:10:53;98258.34;;;21.34;69.66
45247;BME280;31529;51.158;7.354;2023-07-09T03:11:24;98257.56;;;21.33;69.45
45247;BME280;31529;51.158;7.354;2023-07-09T03:11:56;98259.16;;;21.34;69.66
45247;BME280;31529;51.158;7.354;2023-07-09T03:12:27;98259.16;;;21.34;70.04
45247;BME280;31529;51.158;7.354;2023-07-09T03:12:58;98257.22;;;21.35;69.81
45247;BME280;31529;51.158;7.354;2023-07-09T03:13:29;98254.84;;;21.33;69.87
45247;BME280;31529;51.158;7.354;2023-07-09T03:14:01;98263.00;;;21.33;69.78
45247;BME280;31529;51.158;7.354;2023-07-09T03:14:32;98266.84;;;21.32;70.23